PDT,Max TemperatureF,Mean TemperatureF,Min TemperatureF,Max Dew PointF,MeanDew PointF,Min DewpointF,Max Humidity, Mean Humidity, Min Humidity, Max Sea Level PressureIn, Mean Sea Level PressureIn, Min Sea Level PressureIn, Max VisibilityMiles, Mean VisibilityMiles, Min VisibilityMiles, Max Wind SpeedMPH, Mean Wind SpeedMPH, Max Gust SpeedMPH,PrecipitationIn, CloudCover, Events, WindDirDegrees
2013-10-1,1,1,1,,,,,,,30.14,30.04,29.96,10,10,10,13,5,,0.01,2,,324
2013-10-2,57,51,43,40,38,36,77,64,47,30.12,30.07,30.01,10,10,10,14,6,,0.00,4,,10
2013-10-3,63,48,34,40,36,30,86,66,39,30.44,30.29,30.13,10,10,10,17,7,21,0.00,0,,308
2013-10-4,66,48,30,40,33,27,89,65,26,30.54,30.47,30.41,10,10,10,7,2,,0.00,0,,76
2013-10-5,69,52,35,40,35,31,86,62,28,30.43,30.35,30.26,10,10,10,8,3,,0.00,0,,90
2013-10-6,71,52,33,42,37,29,86,64,32,30.24,30.09,29.91,10,10,10,7,2,,0.00,0,,82
2013-10-7,63,52,41,43,39,35,86,64,44,29.97,29.92,29.86,10,10,10,30,9,34,0.00,2,Rain,321
2013-10-8,55,49,44,39,36,34,74,62,47,30.02,29.94,29.88,10,10,10,23,13,37,0.00,3,,318
2013-10-9,62,48,35,39,35,31,85,60,35,30.13,30.03,29.90,10,10,10,17,5,,0.00,2,,334
2013-10-10,63,54,45,39,36,31,74,55,38,30.01,29.91,29.85,10,10,10,24,13,34,0.00,2,,311
2013-10-11,63,49,37,40,37,33,86,63,35,30.12,30.07,30.02,10,10,10,13,4,,0.00,6,,348
2013-10-12,57,47,37,41,37,32,83,68,47,30.18,30.07,30.01,10,10,10,12,6,,0.00,6,Rain,326
2013-10-13,63,46,30,39,34,28,89,67,33,30.34,30.26,30.18,10,10,10,10,1,,0.00,0,,333
2013-10-14,64,46,28,37,31,24,88,63,30,30.45,30.40,30.35,10,10,8,7,2,,0.00,0,,106
2013-10-15,63,45,28,35,30,24,82,61,30,30.44,30.33,30.17,10,10,10,7,3,,0.00,0,,87
2013-10-16,66,52,37,39,35,31,79,60,34,30.21,30.17,30.13,10,10,10,6,2,,0.00,2,,52
2013-10-17,66,48,32,40,34,28,85,65,33,30.31,30.26,30.21,10,10,7,9,2,,0.00,0,,84
2013-10-18,66,48,30,38,33,27,85,64,29,30.33,30.26,30.19,10,10,10,8,1,,0.00,0,,86
2013-10-19,66,47,28,41,34,25,85,67,34,30.18,30.15,30.09,10,10,10,6,1,,0.00,0,,115
2013-10-20,73,52,30,43,36,27,85,61,31,30.21,30.15,30.10,10,9,2,7,1,,0.00,0,,66
2013-10-21,75,54,35,43,38,31,89,60,30,30.23,30.18,30.13,10,9,2,7,2,,0.00,0,,30
2013-10-22,73,53,33,46,38,30,89,67,34,30.23,30.15,30.08,10,10,2,5,0,,0.00,0,,110
2013-10-23,70,51,32,44,37,29,88,69,39,30.19,30.13,30.09,10,10,8,7,1,,0.00,0,,126
2013-10-24,55,42,32,42,34,29,93,83,60,30.17,30.12,30.05,10,7,0,4,0,,0.00,1,Fog,350
2013-10-25,68,54,39,44,41,35,83,62,40,30.28,30.21,30.13,10,10,8,6,2,,0.00,0,,52
2013-10-26,64,48,33,44,36,30,93,79,48,30.34,30.26,30.09,10,6,0,6,1,,0.00,1,Fog-Snow,73
2013-10-27,54,45,36,40,37,33,89,67,47,30.06,29.88,29.80,10,9,4,26,10,34,0.03,6,Rain,359
2013-10-28,55,44,32,32,24,22,66,41,27,29.97,29.93,29.89,10,10,10,16,11,26,0.00,2,,53
2013-10-29,54,39,24,28,23,18,78,62,33,30.07,30.02,29.98,10,10,10,7,2,,0.00,0,,80
2013-10-30,62,44,26,33,26,21,81,56,25,30.07,30.04,30.01,10,10,10,31,6,38,0.00,2,,310
2013-10-31,62,54,46,43,40,35,77,63,46,30.20,30.09,30.03,10,10,10,28,15,34,0.00,2,,295